Date,TemperatureHighF,TemperatureAvgF,TemperatureLowF,DewpointHighF,DewpointAvgF,DewpointLowF,HumidityHigh,HumidityAvg,HumidityLow,PressureMaxIn,PressureMinIn,WindSpeedMaxMPH,WindSpeedAvgMPH,GustSpeedMaxMPH,PrecipitationSumIn
2013-1-1,35.9,33.9,31.9,34.0,29.0,25.0,98,82,68,29.38,29.13,28,9,38,0.00
2013-1-2,33.7,32.0,30.8,32.0,30.0,26.0,97,92,73,29.45,29.24,16,4,25,0.07
2013-1-3,34.6,32.3,29.1,33.0,31.2,28.0,97,95,92,29.55,29.39,8,1,23,1.06
2013-1-4,33.2,30.2,25.9,30.0,27.9,24.0,96,91,85,29.78,29.56,11,1,12,0.00
2013-1-5,35.0,33.6,30.4,33.0,30.7,28.0,94,89,83,29.66,29.20,13,4,18,0.00
2013-1-6,34.6,32.4,30.1,30.0,28.3,25.0,96,85,67,29.29,28.92,15,5,28,0.01
2013-1-7,31.9,30.5,27.3,31.0,28.7,25.0,97,93,85,29.34,28.92,10,4,17,0.14
2013-1-8,29.0,25.5,20.9,27.0,23.5,19.0,96,92,86,30.00,29.34,7,1,11,0.00
2013-1-9,31.1,24.3,18.3,30.0,21.7,17.0,95,90,74,30.06,29.87,6,1,10,0.02
2013-1-10,33.3,28.6,25.3,31.0,27.0,24.0,97,94,80,30.11,29.87,13,2,16,0.01
2013-1-11,35.2,32.4,28.5,33.0,30.5,28.0,97,93,77,30.09,29.80,11,2,21,0.02
2013-1-12,42.5,36.6,30.7,39.0,33.7,28.0,96,89,78,30.08,29.78,8,3,11,0.48
2013-1-13,41.9,38.8,36.7,39.0,37.0,35.0,97,93,81,29.85,29.58,7,3,11,0.66
2013-1-14,43.0,35.5,25.0,40.0,32.6,22.0,96,89,78,30.01,29.50,17,4,29,0.60
2013-1-15,31.7,26.4,24.2,24.0,20.1,7.0,88,79,38,30.22,30.02,8,2,15,0.00
2013-1-16,33.1,28.3,21.3,31.0,25.9,20.0,96,90,73,30.17,29.65,7,1,11,0.24
2013-1-17,21.1,16.6,13.6,19.0,14.7,12.0,93,92,90,29.92,29.60,7,2,10,0.00
2013-1-18,20.2,16.3,12.7,17.0,13.2,9.0,91,87,82,30.13,29.93,5,1,8,0.00
2013-1-19,36.7,31.0,20.2,33.0,27.0,17.0,96,85,76,30.13,29.74,21,7,25,0.03
2013-1-20,39.5,36.0,29.8,33.0,31.4,27.0,94,83,73,29.82,29.75,11,3,23,0.00
2013-1-21,42.1,37.9,29.6,35.0,31.8,27.0,92,79,70,29.83,29.53,15,5,25,0.00
2013-1-22,41.7,39.4,37.3,34.0,32.5,31.0,79,76,72,29.55,29.33,16,5,23,0.00
2013-1-23,39.5,38.0,35.3,32.0,31.2,29.0,80,76,74,29.33,29.18,8,4,13,0.00
2013-1-24,38.2,33.8,28.9,32.0,29.9,27.0,97,86,75,29.49,29.27,7,1,11,0.00
2013-1-25,31.6,20.8,7.4,31.0,15.7,-3.0,97,81,56,29.60,29.37,15,6,20,0.00
2013-1-26,8.4,3.8,0.1,-3.0,-7.2,-11.0,77,61,51,29.89,29.61,11,3,13,0.00
2013-1-27,1.9,-2.2,-6.2,-4.0,-11.0,-16.0,77,66,55,30.13,29.90,20,6,24,0.00
2013-1-28,15.6,3.6,-5.5,14.0,-3.4,-14.0,93,73,58,30.14,29.70,11,5,21,0.00
2013-1-29,30.0,23.8,16.3,27.0,21.5,14.0,92,90,87,29.74,29.62,10,3,14,0.11
2013-1-30,40.1,35.6,30.4,34.0,31.9,27.0,94,86,75,29.73,29.59,19,5,26,0.06
2013-1-31,35.7,32.2,24.0,34.0,31.1,23.0,97,95,92,29.88,29.67,4,1,7,0.02
2013-2-1,40.2,36.5,25.3,34.0,31.5,24.0,97,82,72,29.88,29.57,11,5,19,0.00
2013-2-2,40.6,38.2,36.6,33.0,32.1,31.0,86,79,73,29.57,29.21,15,5,29,0.00
2013-2-3,40.2,36.2,30.5,32.0,29.9,26.0,87,78,70,29.43,29.14,13,3,24,0.00
2013-2-4,37.4,34.9,33.1,32.0,29.5,28.0,90,81,72,29.61,29.43,7,2,14,0.00
2013-2-5,38.1,32.4,26.3,30.0,26.6,22.0,91,79,66,29.61,29.48,7,2,8,0.00
2013-2-6,29.5,24.2,20.1,28.0,22.5,18.0,96,93,90,29.61,29.46,7,2,14,0.07
2013-2-7,35.1,29.0,20.0,30.0,25.6,18.0,96,87,74,29.56,29.23,10,2,18,0.04
2013-2-8,34.6,31.9,28.0,31.0,29.4,27.0,97,90,80,29.70,29.39,6,1,15,0.11
2013-2-9,38.4,35.9,32.6,34.0,31.6,29.0,93,84,74,29.60,28.89,20,9,32,0.01
2013-2-10,37.4,30.9,24.1,33.0,29.2,22.0,97,94,80,29.54,28.88,14,3,28,0.17
2013-2-11,30.5,22.2,16.7,24.0,16.8,8.0,92,80,53,29.71,29.54,15,3,19,0.00
2013-2-12,33.1,30.5,26.5,28.0,26.2,23.0,94,84,75,29.72,29.62,7,2,14,0.01
2013-2-13,35.3,30.3,25.1,29.0,27.1,24.0,96,88,72,29.77,29.52,22,5,39,0.01
2013-2-14,36.4,31.2,27.6,32.0,28.1,25.0,96,88,73,29.52,29.12,22,4,22,0.06
2013-2-15,28.1,21.6,15.8,27.0,19.3,12.0,96,91,80,29.98,29.51,20,4,20,0.03
2013-2-16,29.6,22.0,16.0,25.0,15.5,7.0,89,77,52,30.02,29.62,14,3,18,0.00
2013-2-17,29.6,23.8,16.7,25.0,20.8,15.0,94,88,78,29.74,29.52,8,3,13,0.06
2013-2-18,21.2,16.0,10.9,17.0,5.1,0.0,84,63,51,29.86,29.74,10,4,16,0.00
2013-2-19,29.8,23.0,11.9,26.0,16.6,4.0,90,76,61,29.79,29.12,15,4,27,0.00
2013-2-20,33.4,28.2,24.1,29.0,25.0,22.0,95,87,80,29.23,28.95,15,3,19,0.02
2013-2-21,26.2,24.4,19.9,25.0,23.1,19.0,95,94,93,29.23,29.11,5,1,11,0.01
2013-2-22,23.9,20.5,16.7,19.0,15.5,11.0,94,81,65,29.45,29.23,14,4,23,0.00
2013-2-23,30.6,27.4,21.3,29.0,23.0,13.0,96,84,60,29.33,29.06,12,3,21,0.13
2013-2-24,34.1,29.7,26.2,32.0,26.4,23.0,95,87,79,29.59,29.28,7,2,14,0.00
2013-2-25,35.4,32.4,26.4,28.0,26.3,22.0,87,78,70,29.60,29.41,14,5,23,0.00
2013-2-26,38.3,33.6,29.0,30.0,27.1,25.0,87,77,66,29.41,29.18,16,5,21,0.00
2013-2-27,36.6,31.7,27.3,30.0,27.5,23.0,95,84,72,29.23,29.08,13,4,17,0.00
2013-2-28,33.8,29.7,25.8,30.0,27.3,24.0,96,90,82,29.40,29.23,8,2,11,0.01
2013-3-1,31.5,27.9,22.9,28.0,26.1,20.0,95,93,87,29.93,29.40,3,1,5,0.06
2013-3-2,35.0,28.9,19.7,28.0,23.9,17.0,94,82,69,29.98,29.93,10,3,12,0.00
2013-3-3,37.1,35.5,32.9,30.0,28.3,27.0,81,75,68,30.32,29.98,25,9,33,0.00
2013-3-4,39.6,36.9,30.6,32.0,30.2,27.0,89,77,71,30.39,30.28,15,4,22,0.00
2013-3-5,38.6,32.9,26.0,29.0,27.0,24.0,94,79,63,30.28,29.95,5,2,8,0.00
2013-3-6,40.9,35.6,31.1,32.0,29.1,27.0,92,78,66,29.95,29.75,6,2,14,0.00
2013-3-7,39.2,35.1,31.4,31.0,30.3,26.0,96,83,68,29.74,29.38,29,12,37,0.12
2013-3-8,37.5,34.1,31.0,30.0,28.4,25.0,95,80,65,29.71,29.46,20,6,30,0.00
2013-3-9,38.3,32.4,27.3,31.0,28.8,26.0,96,87,69,30.12,29.72,8,1,14,0.02
2013-3-10,32.2,27.3,24.4,30.0,25.0,22.0,95,91,85,30.21,30.05,11,3,14,0.08
2013-3-11,31.5,27.5,23.3,25.0,22.1,16.0,93,80,63,30.30,30.21,11,3,17,0.00
2013-3-12,26.5,22.0,16.7,16.0,8.7,3.0,72,57,43,30.21,29.98,20,6,27,0.00
2013-3-13,25.9,19.3,12.1,10.0,5.1,1.0,66,55,42,29.98,29.74,8,3,10,0.00
2013-3-14,28.0,19.3,12.9,20.0,14.1,10.0,92,80,67,29.79,29.69,9,4,14,0.01
2013-3-15,35.6,28.1,21.9,20.0,13.3,8.0,84,56,33,29.78,29.68,6,3,10,0.00
2013-3-16,34.2,27.1,20.7,23.0,12.5,5.0,88,56,35,30.08,29.79,7,2,10,0.00
2013-3-17,32.1,24.3,15.3,19.0,8.4,1.0,80,52,33,30.13,30.04,6,2,11,0.00
2013-3-18,27.6,21.2,14.6,11.0,8.7,6.0,71,59,45,30.03,29.88,10,3,13,0.00
2013-3-19,24.3,17.0,10.4,10.0,4.6,-1.0,79,60,38,29.91,29.86,12,4,19,0.00
2013-3-20,23.9,16.1,7.2,12.0,2.6,-3.0,76,56,35,29.97,29.88,13,3,15,0.00
2013-3-21,26.3,19.9,9.6,15.0,9.4,4.0,78,64,50,30.19,29.98,6,2,11,0.00
2013-3-22,31.5,30.0,25.4,30.0,25.7,14.0,96,85,59,30.11,29.84,12,3,18,0.07
2013-3-23,32.1,27.8,25.2,26.0,24.1,21.0,94,86,76,29.83,29.78,7,2,11,0.00
2013-3-24,26.5,23.6,18.6,23.0,21.1,16.0,94,90,86,29.79,29.58,7,2,10,0.04
2013-3-25,21.5,12.8,4.6,20.0,10.0,2.0,94,88,81,29.72,29.47,12,4,21,0.00
2013-3-26,16.4,10.2,2.1,14.0,7.3,-1.0,91,87,81,30.16,29.73,5,1,10,0.00
2013-3-27,26.6,17.4,6.8,19.0,12.7,4.0,92,82,63,30.20,30.12,8,2,11,0.00
2013-3-28,35.1,30.4,24.9,30.0,24.8,19.0,94,80,69,30.12,29.76,18,6,26,0.01
2013-3-29,40.5,35.7,31.8,34.0,30.3,28.0,96,81,67,29.94,29.74,10,3,18,0.03
2013-3-30,40.4,33.8,28.9,35.0,30.7,27.0,96,89,69,30.21,29.94,4,1,10,0.00
2013-3-31,40.4,33.0,27.3,32.0,28.8,25.0,92,85,68,30.22,30.10,6,2,10,0.03
2013-4-1,39.4,32.2,26.1,32.0,27.0,22.0,93,82,55,30.10,29.96,5,2,8,0.00
2013-4-3,38.9,36.0,28.3,26.0,23.9,21.0,77,62,57,30.20,30.17,8,2,9,0.00
2013-4-4,39.0,32.0,24.9,25.0,20.7,13.0,80,64,50,30.16,29.74,7,3,13,0.00
2013-4-5,35.4,29.5,23.0,26.0,18.5,10.0,86,64,52,29.73,29.47,9,3,11,0.00
2013-4-6,31.5,27.5,21.2,26.0,23.1,15.0,93,84,63,29.51,29.40,9,2,14,0.12
2013-4-7,19.7,15.2,10.4,13.0,9.7,5.0,86,78,70,29.78,29.55,12,4,23,0.00
2013-4-8,22.2,14.9,5.0,11.0,7.7,2.0,89,74,58,29.78,29.31,9,3,13,0.00
2013-4-9,16.4,12.8,8.6,13.0,9.1,4.0,91,85,74,29.51,29.09,18,3,19,0.01
2013-4-10,15.0,10.7,7.5,8.0,5.4,3.0,88,79,64,29.97,29.52,11,5,20,0.00
2013-4-11,21.0,14.7,7.4,11.0,6.0,1.0,84,69,51,30.11,29.98,12,3,15,0.00
2013-4-12,25.6,16.3,7.1,8.0,4.3,1.0,78,60,41,30.15,30.08,11,4,16,0.00
2013-4-13,29.5,21.2,12.8,10.0,6.7,3.0,76,55,41,30.42,30.15,14,5,21,0.00
2013-4-14,37.6,27.6,16.7,22.0,11.3,4.0,76,52,36,30.53,30.43,8,3,13,0.00
2013-4-15,35.6,29.6,23.5,22.0,17.4,13.0,84,61,47,30.44,30.26,9,3,14,0.00
2013-4-16,32.6,26.3,19.5,15.0,12.6,10.0,73,57,43,30.26,30.10,11,5,16,0.00
2013-4-17,33.0,23.6,16.2,14.0,9.3,4.0,73,55,42,30.17,30.09,17,6,22,0.00
2013-4-18,36.3,29.1,19.6,18.0,14.4,9.0,73,55,41,30.17,30.11,12,4,14,0.00
2013-4-19,40.4,31.6,22.3,20.0,16.4,12.0,66,54,42,30.33,30.15,6,3,10,0.00
2013-4-20,39.6,34.0,26.5,23.0,19.2,15.0,72,56,40,30.40,30.33,9,2,11,0.00
2013-4-21,34.4,32.0,27.4,31.0,27.2,24.0,94,83,67,30.37,30.25,13,4,20,0.06
2013-4-22,43.5,35.0,24.3,31.0,27.2,22.0,96,75,54,30.49,30.37,9,2,13,0.00
2013-4-23,39.4,36.3,33.9,38.0,34.0,29.0,97,91,66,30.44,30.33,11,3,17,0.24
2013-4-24,39.3,35.5,32.6,36.0,33.5,31.0,98,92,76,30.34,29.83,6,1,12,0.00
2013-4-25,37.9,33.8,27.6,32.0,18.3,11.0,91,54,37,29.84,29.66,22,8,28,0.00
2013-4-26,37.9,30.1,21.7,22.0,12.6,8.0,61,49,34,29.74,29.48,13,4,27,0.00
2013-4-27,37.8,31.3,24.8,20.0,17.3,13.0,69,57,45,29.91,29.51,12,5,22,0.00
2013-4-28,38.7,31.8,25.6,20.0,13.6,7.0,62,47,39,30.16,29.91,17,6,21,0.00
2013-4-29,39.4,33.2,25.9,25.0,19.0,14.0,69,56,45,30.18,30.11,7,2,11,0.00
2013-4-30,39.8,35.6,31.9,30.0,25.2,21.0,80,66,59,30.10,29.76,8,2,13,0.00
2013-5-1,41.0,36.5,31.6,30.0,27.5,25.0,81,70,59,29.75,29.53,9,3,16,0.00
2013-5-2,40.3,36.5,32.9,37.0,33.7,29.0,94,89,75,29.84,29.64,4,1,10,0.08
2013-5-3,40.8,36.7,33.6,36.0,33.1,27.0,96,87,76,29.91,29.77,8,2,12,0.08
2013-5-4,35.9,32.7,29.5,34.0,30.3,28.0,96,91,76,29.96,29.75,7,2,12,0.16
2013-5-5,40.3,34.7,27.5,34.0,29.1,24.0,91,80,70,30.16,29.97,10,2,14,0.00
2013-5-6,40.0,34.9,30.0,29.0,26.2,23.0,86,71,57,30.26,30.16,9,2,15,0.00
2013-5-7,41.0,35.9,31.4,32.0,28.3,24.0,83,74,63,30.28,30.25,6,2,10,0.00
2013-5-8,47.8,39.7,31.6,33.0,29.9,28.0,87,69,51,30.28,30.20,11,2,15,0.00
2013-5-9,47.3,41.0,35.7,36.0,32.2,30.0,83,71,57,30.28,30.21,6,2,9,0.00
2013-5-10,54.0,44.7,34.1,36.0,31.8,26.0,84,63,34,30.22,29.94,6,2,10,0.00
2013-5-11,44.3,41.4,37.2,41.0,37.4,34.0,95,86,75,29.94,29.56,8,1,10,0.06
2013-5-12,49.2,43.4,38.9,43.0,40.5,38.0,97,90,74,29.56,29.48,7,1,7,0.03
2013-5-13,47.5,40.9,36.4,42.0,38.2,35.0,96,90,69,29.48,29.40,7,2,11,0.02
2013-5-14,43.1,37.1,32.8,36.0,29.2,22.0,95,74,48,29.66,29.45,10,2,16,0.11
2013-5-15,42.4,35.9,30.1,32.0,26.4,21.0,86,69,45,29.74,29.66,7,2,12,0.00
2013-5-16,42.4,38.2,34.2,35.0,32.2,29.0,95,79,70,29.67,29.43,13,4,21,0.11
2013-5-17,38.3,34.4,32.1,35.0,32.0,27.0,97,91,77,29.52,29.39,9,2,15,0.24
2013-5-18,35.4,30.9,27.4,28.0,23.8,18.0,95,76,55,30.17,29.53,9,3,14,0.04
2013-5-19,43.8,34.7,24.9,29.0,18.8,14.0,81,54,36,30.62,30.18,10,3,14,0.00
2013-5-20,43.4,37.8,29.6,32.0,28.4,24.0,85,69,54,30.64,30.56,7,2,14,0.00
2013-5-21,46.1,41.3,36.1,34.0,33.0,31.0,85,73,60,30.55,30.26,4,1,10,0.00
2013-5-22,46.2,42.6,37.8,43.0,37.9,33.0,93,83,75,30.25,30.12,6,2,7,0.00
2013-5-23,49.0,43.7,39.6,44.0,41.0,38.0,96,90,80,30.14,30.11,5,1,10,0.00
2013-5-24,55.4,48.5,40.9,43.0,40.0,37.0,90,74,59,30.11,30.00,7,2,13,0.00
2013-5-25,56.8,50.1,42.3,40.0,37.7,35.0,78,63,47,30.00,29.90,9,2,11,0.00
2013-5-26,52.7,44.8,38.0,41.0,38.0,34.0,88,77,59,29.91,29.86,8,1,11,0.00
2013-5-27,53.7,48.0,41.1,43.0,40.0,38.0,87,74,62,29.87,29.78,9,3,11,0.00
2013-5-28,71.6,55.2,37.9,46.0,41.8,36.0,97,65,35,29.79,29.66,10,2,12,0.00
2013-5-29,64.7,59.7,53.0,47.0,41.5,37.0,59,51,46,29.75,29.65,7,2,10,0.00
2013-5-30,59.3,54.8,49.1,46.0,42.2,38.0,75,63,54,30.01,29.75,8,2,11,0.00
2013-5-31,52.1,47.5,42.6,46.0,43.1,38.0,95,85,76,30.16,30.01,8,2,10,0.00
2013-6-1,47.2,44.1,42.3,45.0,42.9,41.0,97,95,91,30.22,30.16,5,1,7,0.08
2013-6-2,52.8,45.6,38.0,43.0,39.6,36.0,95,80,64,30.23,30.05,10,2,14,0.00
2013-6-3,48.6,45.3,42.5,39.0,37.0,36.0,84,73,63,30.05,29.71,13,4,16,0.00
2013-6-4,49.1,44.7,40.8,43.0,39.9,37.0,93,83,75,29.83,29.66,7,2,11,0.01
2013-6-5,52.6,45.4,35.8,43.0,37.6,34.0,97,76,58,29.96,29.84,9,2,14,0.00
2013-6-6,56.3,49.6,39.7,41.0,36.3,33.0,77,61,46,29.92,29.73,9,3,15,0.00
2013-6-7,61.6,52.4,39.6,40.0,37.1,34.0,81,58,45,29.93,29.73,11,3,14,0.00
2013-6-8,67.5,57.6,48.8,46.0,41.2,36.0,64,55,39,30.13,29.94,8,3,13,0.00
2013-6-9,62.6,57.2,50.5,48.0,43.1,40.0,71,60,51,30.23,30.13,7,2,12,0.00
2013-6-10,59.1,55.1,49.4,47.0,43.6,41.0,76,66,55,30.23,30.15,10,2,12,0.00
2013-6-11,65.5,58.6,49.7,48.0,44.1,41.0,73,60,44,30.15,30.00,12,2,17,0.00
2013-6-12,65.4,59.6,49.1,48.0,44.2,40.0,75,58,47,30.02,29.96,6,2,10,0.00
2013-6-13,60.0,54.2,47.2,49.0,45.3,41.0,84,72,61,30.18,29.99,8,2,11,0.00
2013-6-14,57.2,48.6,43.7,48.0,43.5,41.0,92,83,70,30.22,30.18,3,1,4,0.00
2013-7-12,69.3,64.6,57.8,55.0,48.8,-99.9,70,60,56,29.97,0.00,7,-17,11,0.00
2013-7-13,66.9,60.7,52.6,54.0,49.4,43.0,82,67,57,30.16,29.97,6,2,10,0.00
2013-7-14,61.2,55.1,47.3,53.0,49.5,45.0,91,81,72,30.31,30.17,11,2,12,0.00
2013-7-15,63.1,54.2,46.1,54.0,49.3,43.0,94,84,71,30.33,30.25,7,2,13,0.00
2013-7-16,60.0,55.4,51.5,54.0,51.6,48.0,95,87,80,30.25,30.18,9,2,14,0.00
2013-7-17,64.0,57.8,52.6,58.0,55.1,51.0,96,91,82,30.18,30.11,10,3,15,0.00
2013-7-18,65.7,60.1,56.0,59.0,56.7,54.0,97,88,78,30.20,30.14,10,3,15,0.00
2013-7-19,57.5,53.6,50.0,55.0,51.0,49.0,98,91,82,30.24,30.19,14,4,15,0.00
2013-7-20,65.6,54.1,48.4,55.0,50.0,45.0,98,87,61,30.19,30.08,7,2,11,0.00
2013-7-21,68.6,59.9,48.1,51.0,46.8,43.0,86,64,47,30.08,29.97,13,4,18,0.00
2013-7-22,69.8,61.9,51.4,52.0,47.7,43.0,75,60,50,30.11,30.00,8,3,14,0.00
2013-7-23,70.8,63.5,57.0,58.0,50.5,43.0,80,63,48,30.11,30.05,5,1,7,0.00
2013-7-24,71.9,65.3,55.8,56.0,52.7,48.0,79,65,50,30.05,29.96,6,2,10,0.00
2013-7-25,67.7,63.1,55.2,60.0,56.2,51.0,88,78,69,30.03,29.96,9,2,13,0.00
2013-7-26,59.3,57.1,55.9,57.0,56.0,55.0,98,96,86,30.30,30.03,3,1,6,0.23
2013-7-27,62.2,57.3,51.5,58.0,55.1,51.0,98,92,83,30.35,30.30,4,1,6,0.00
2013-7-28,67.6,60.5,51.8,61.0,56.5,51.0,98,87,76,30.31,30.19,7,2,10,0.00
2013-7-29,67.0,60.9,53.4,59.0,55.9,51.0,96,84,76,30.19,30.15,7,2,10,0.00
2013-7-30,64.7,59.8,51.8,59.0,55.0,50.0,96,84,76,30.21,30.17,7,2,9,0.00
2013-7-31,66.2,60.6,50.5,57.0,54.0,48.0,93,80,60,30.20,30.12,8,2,11,0.00
2013-8-1,62.5,56.0,49.6,55.0,51.2,48.0,97,84,71,30.12,29.97,8,2,10,0.00
2013-8-2,62.3,56.3,51.5,52.0,50.1,47.0,91,80,64,29.99,29.66,11,4,20,0.00
2013-8-3,59.2,55.9,53.4,50.0,48.6,47.0,85,77,68,29.89,29.65,19,6,26,0.00
2013-8-4,58.0,54.1,50.9,53.0,49.8,47.0,95,85,73,29.96,29.89,6,1,12,0.02
2013-8-5,57.1,53.6,50.0,51.0,49.3,48.0,93,85,75,29.97,29.91,8,2,11,0.08
2013-8-6,60.4,55.1,51.9,52.0,49.9,48.0,89,83,73,29.91,29.80,17,6,24,0.00
2013-8-7,57.5,55.2,52.4,50.0,49.3,48.0,87,80,73,29.80,29.67,14,5,25,0.00
2013-8-8,53.6,51.2,48.2,49.0,46.0,43.0,95,83,72,29.80,29.67,16,4,22,0.01
2013-8-9,58.1,53.4,47.8,52.0,48.4,44.0,96,83,74,29.75,29.62,13,2,24,0.01
2013-8-10,58.6,51.7,44.9,50.0,47.9,44.0,97,87,70,30.00,29.75,7,2,10,0.00
2013-8-11,52.8,50.3,47.6,52.0,48.9,45.0,98,95,87,30.02,29.95,3,0,10,0.66
2013-8-12,59.8,55.1,51.5,56.0,53.0,50.0,97,92,84,30.02,29.96,7,2,10,0.38
2013-8-13,56.7,54.4,45.8,55.0,51.7,44.0,95,90,83,30.02,29.97,5,1,10,0.00
2013-8-14,57.8,50.9,44.2,50.0,46.7,43.0,97,86,73,30.03,29.91,9,2,11,0.00
2013-8-15,58.9,53.2,46.6,53.0,49.3,45.0,96,86,79,29.91,29.76,8,1,12,0.00
2013-8-16,54.2,50.9,46.8,52.0,48.7,45.0,96,92,86,29.76,29.57,5,1,10,0.05
2013-8-17,59.8,56.0,51.7,54.0,50.9,47.0,88,83,76,29.57,29.48,7,2,12,0.00
2013-8-18,58.1,54.9,51.4,55.0,52.2,49.0,94,90,84,29.65,29.48,4,1,6,0.00
2013-8-19,55.1,52.7,48.1,52.0,50.0,46.0,96,90,83,29.75,29.66,6,1,8,0.13
2013-8-20,56.2,50.6,44.9,52.0,48.6,44.0,99,93,84,29.88,29.75,9,2,14,0.00
2013-8-21,51.3,50.4,49.5,51.0,48.9,46.0,98,94,85,29.88,29.75,7,1,11,0.34
2013-8-22,52.9,51.3,50.4,52.0,50.7,49.0,98,97,96,29.76,29.71,6,1,9,0.09
2013-8-23,55.9,51.6,46.1,52.0,49.7,43.0,99,93,83,29.71,29.55,15,3,20,0.00
2013-8-24,63.2,54.5,45.0,51.0,45.2,41.0,92,73,48,29.71,29.57,13,3,20,0.00
2013-8-25,63.1,54.2,45.0,47.0,42.0,37.0,78,64,46,29.73,29.68,8,2,10,0.00
2013-8-26,59.7,53.0,45.9,50.0,43.7,37.0,83,71,59,29.75,29.71,7,2,10,0.00
2013-8-27,58.8,52.8,48.2,50.0,47.5,44.0,92,82,68,29.80,29.75,7,1,11,0.00
2013-8-28,55.5,50.5,45.4,49.0,46.7,42.0,96,87,73,29.77,29.48,6,1,10,0.23
2013-8-29,54.4,50.8,48.2,51.0,48.8,47.0,96,92,81,29.84,29.45,9,3,16,0.19
2013-8-30,57.1,52.7,48.5,54.0,50.5,48.0,97,92,82,29.97,29.85,6,1,8,0.00
2013-8-31,56.5,52.2,48.6,50.0,47.1,43.0,90,83,72,29.96,29.84,6,1,8,0.01
2013-9-1,56.8,53.1,47.8,51.0,48.2,43.0,89,83,78,29.84,29.70,4,1,7,0.00
2013-9-2,56.9,52.8,48.6,51.0,46.5,41.0,94,80,58,29.71,29.49,31,4,31,0.26
2013-9-3,56.6,52.4,49.4,50.0,46.1,43.0,91,79,69,29.49,29.28,18,4,27,0.01
2013-9-4,51.6,48.9,45.8,47.0,44.8,40.0,92,86,75,29.80,29.39,11,2,15,0.01
2013-9-5,52.6,48.7,43.8,44.0,41.8,38.0,84,77,70,30.00,29.80,9,2,18,0.00
2013-9-6,57.1,49.4,45.0,53.0,45.4,39.0,94,86,74,29.95,29.31,18,6,28,0.13
2013-9-7,51.6,48.6,46.7,51.0,47.9,46.0,98,97,92,29.63,29.35,8,1,14,0.22
2013-9-8,54.8,49.1,45.9,47.0,45.1,42.0,99,87,64,29.80,29.52,17,5,23,0.00
2013-9-9,54.9,51.2,48.0,51.0,46.8,42.0,92,85,72,29.77,29.56,18,5,26,0.24
2013-9-10,58.4,52.2,48.2,52.0,49.2,47.0,96,89,70,29.72,29.64,4,1,10,0.10
2013-9-11,52.8,49.1,45.9,49.0,46.3,42.0,98,90,74,29.89,29.60,12,3,16,0.28
2013-9-12,50.8,47.7,42.5,44.0,42.3,39.0,90,81,75,29.96,29.83,13,4,21,0.00
2013-9-13,56.7,51.2,48.7,51.0,46.2,43.0,97,84,65,29.87,29.78,11,3,19,0.03
2013-9-14,53.7,48.0,43.6,50.0,45.9,42.0,97,92,83,29.88,29.84,5,1,7,0.00
2013-9-15,56.0,49.7,43.1,46.0,42.5,38.0,94,77,58,29.88,29.73,10,2,11,0.00
2013-9-16,50.2,45.1,38.6,46.0,41.9,37.0,100,88,73,29.73,29.51,8,2,11,0.00
2013-9-17,48.5,45.0,40.4,44.0,41.2,38.0,93,86,78,29.54,29.45,4,0,8,0.00
2013-9-18,46.1,43.4,40.3,45.0,40.2,36.0,97,88,75,29.63,29.54,7,1,11,0.00
2013-9-19,48.2,40.5,34.5,40.0,35.0,29.0,96,81,54,29.60,29.42,11,2,15,0.00
2013-9-20,44.9,38.1,30.3,31.0,26.2,22.0,86,63,46,29.41,28.98,10,2,15,0.00
2013-9-21,41.3,37.9,34.2,38.0,32.1,22.0,95,81,55,28.97,28.90,10,3,16,0.10
2013-9-22,43.9,37.6,32.5,36.0,29.5,24.0,95,74,51,29.31,28.94,12,3,26,0.00
2013-9-23,45.3,36.9,31.4,27.0,23.7,21.0,78,60,40,29.75,29.31,13,4,19,0.00
2013-9-24,46.6,39.4,30.9,40.0,29.1,22.0,88,67,49,29.94,29.76,5,1,16,0.05
2013-9-25,49.4,45.7,40.7,44.0,40.8,38.0,93,83,74,29.78,29.40,18,3,27,0.19
2013-9-26,47.3,44.1,39.2,45.0,41.9,37.0,97,92,86,29.61,29.17,14,1,16,0.01
2013-9-27,47.6,44.4,40.8,40.0,38.5,37.0,92,80,71,29.15,28.81,19,7,26,0.00
2013-9-28,51.4,44.3,39.4,42.0,36.8,35.0,86,75,58,29.16,29.08,10,2,16,0.00
2013-9-29,44.4,40.8,37.8,37.0,34.5,32.0,88,78,65,29.38,29.15,9,3,15,0.00
2013-9-30,46.9,40.5,34.4,35.0,32.6,30.0,92,74,54,29.63,29.38,10,3,15,0.00
2013-10-1,45.8,38.6,32.2,34.0,30.2,27.0,82,73,59,29.78,29.64,7,2,11,0.00
2013-10-2,45.7,39.9,33.8,39.0,33.5,29.0,95,78,62,29.82,29.72,5,2,12,0.00
2013-10-3,46.7,42.9,37.3,40.0,36.6,31.0,84,78,73,29.72,29.30,16,7,33,0.01
2013-10-4,49.4,43.6,39.1,44.0,39.1,35.0,95,84,72,29.77,29.44,10,2,10,0.00
2013-10-5,45.1,40.0,34.6,39.0,36.6,33.0,96,88,76,29.79,29.69,7,2,11,0.00
2013-10-6,42.3,39.7,38.1,40.0,37.1,34.0,97,90,77,29.77,29.70,10,2,17,0.03
2013-10-7,47.7,42.7,39.2,41.0,39.1,38.0,95,88,73,29.85,29.63,7,1,11,0.08
2013-10-8,48.9,43.7,38.2,45.0,40.4,35.0,97,88,73,29.62,29.12,18,5,25,0.88
2013-10-9,43.2,39.4,36.6,37.0,32.7,29.0,92,78,59,29.75,29.14,19,8,29,0.00
2013-10-10,44.0,40.6,36.1,41.0,38.1,34.0,95,90,84,29.74,29.64,3,1,10,0.15
2013-10-11,46.4,43.3,40.2,43.0,40.0,38.0,96,88,77,29.85,29.67,13,2,23,0.07
2013-10-12,47.4,45.8,44.4,41.0,38.6,36.0,85,76,70,29.80,29.49,21,8,36,0.04
2013-10-13,46.2,43.7,41.7,42.0,39.3,36.0,94,84,70,29.66,29.42,14,3,21,0.14
2013-10-14,45.4,42.5,39.5,40.0,37.5,35.0,89,82,78,30.04,29.67,8,2,16,0.00
2013-10-15,51.4,47.1,42.4,45.0,41.9,37.0,91,82,75,30.14,29.96,21,3,21,0.06
2013-10-16,50.8,46.6,42.4,44.0,39.9,37.0,91,78,68,30.21,30.09,18,5,26,0.11
2013-10-17,48.7,47.2,45.0,40.0,37.8,36.0,78,70,65,30.09,29.66,23,9,33,0.00
2013-10-18,49.0,44.6,39.3,42.0,38.3,36.0,95,79,70,29.77,29.49,25,6,34,0.03
2013-10-19,45.3,43.7,41.1,40.0,37.6,35.0,91,79,72,29.67,29.34,32,6,41,0.01
2013-10-20,45.6,41.4,37.4,39.0,35.7,31.0,90,80,70,29.93,29.68,8,2,14,0.02
2013-10-21,43.0,39.1,34.1,35.0,33.5,31.0,91,81,69,30.01,29.93,11,2,16,0.00
2013-10-22,43.2,37.7,32.0,36.0,33.4,29.0,96,85,66,30.18,30.01,8,2,15,0.01
2013-10-23,38.1,31.8,26.5,32.0,27.6,22.0,96,85,65,30.01,29.73,6,2,10,0.00
2013-10-24,44.0,39.4,32.7,40.0,32.8,19.0,94,78,49,29.78,29.53,25,8,36,0.12
2013-10-25,45.3,39.1,34.5,36.0,32.9,29.0,89,79,63,30.17,29.68,7,1,8,0.01
2013-10-26,47.8,41.2,35.2,37.0,31.6,22.0,95,71,38,30.38,30.18,14,3,26,0.00
2013-10-27,51.7,43.8,39.3,46.0,39.9,30.0,96,86,54,30.20,29.53,23,6,32,0.42
2013-10-28,51.0,44.1,40.3,46.0,42.3,39.0,98,93,80,29.55,29.25,18,4,25,1.09
2013-10-29,45.3,41.2,38.4,40.0,37.1,35.0,97,85,71,29.56,29.18,16,3,26,0.00
2013-10-30,44.7,41.9,39.3,38.0,36.7,35.0,90,82,75,29.17,28.96,22,6,31,0.01
2013-10-31,40.6,38.3,37.0,38.0,36.9,35.0,97,94,87,29.63,29.13,7,1,11,0.04
2013-11-1,37.0,35.6,32.6,36.0,34.6,31.0,97,96,93,30.01,29.64,8,2,12,0.01
2013-11-2,41.6,35.5,28.7,33.0,30.4,27.0,95,82,70,30.01,29.73,8,2,18,0.00
2013-11-3,46.4,43.1,39.8,37.0,35.2,32.0,78,74,70,29.76,29.45,9,2,14,0.00
2013-11-4,43.6,39.6,35.6,37.0,34.3,28.0,92,82,72,29.44,29.25,11,3,19,0.00
2013-11-5,42.2,36.2,30.5,32.0,28.7,22.0,84,74,65,29.94,29.36,9,2,16,0.00
2013-11-6,33.5,29.6,24.8,27.0,19.8,15.0,78,67,47,30.04,29.87,11,2,19,0.00
2013-11-7,37.9,34.8,29.6,30.0,28.1,26.0,85,76,70,29.87,29.67,8,2,14,0.00
2013-11-8,37.2,30.7,24.8,29.0,26.3,22.0,94,84,65,30.21,29.85,3,0,6,0.00
2013-11-9,43.1,39.3,31.9,39.0,36.1,26.0,94,88,75,30.22,30.05,9,2,13,0.01
2013-11-10,40.4,37.7,31.9,39.0,36.5,30.0,97,95,93,30.05,29.72,10,2,15,0.60
2013-11-11,31.6,27.2,22.1,30.0,21.9,13.0,94,80,65,30.07,29.82,15,4,24,0.00
2013-11-12,28.7,22.5,16.9,17.0,11.0,5.0,80,62,44,30.14,30.06,13,2,15,0.00
2013-11-13,39.4,32.7,25.4,38.0,28.2,8.0,97,84,44,30.23,30.11,5,1,11,0.00
2013-11-14,41.4,38.1,30.9,40.0,35.0,24.0,98,89,71,30.18,29.89,13,4,26,0.00
2013-11-15,34.8,30.9,24.2,28.0,23.2,17.0,86,73,58,30.02,29.91,6,1,11,0.00
2013-11-16,25.6,21.8,18.8,17.0,11.9,7.0,75,66,53,30.22,29.98,9,3,17,0.00
2013-11-17,19.5,14.8,9.6,8.0,4.7,1.0,73,65,56,30.23,30.19,13,4,19,0.00
2013-11-18,16.2,10.2,5.5,3.0,0.9,-1.0,78,66,53,30.21,30.16,8,2,21,0.00
2013-11-19,16.8,10.2,5.3,12.0,0.0,-3.0,82,64,51,30.17,29.98,8,2,10,0.00
2013-11-20,17.0,11.1,7.4,14.0,4.9,-1.0,88,76,61,29.98,29.84,15,5,24,0.00
2013-11-21,42.6,20.0,8.1,37.0,15.2,2.0,96,82,68,29.84,29.08,13,6,21,0.09
2013-11-22,43.0,29.9,22.0,38.0,27.4,18.0,97,90,79,29.47,29.08,15,3,21,0.01
2013-11-23,32.7,27.1,20.9,30.0,23.3,19.0,94,86,74,29.98,29.47,10,3,17,0.07
2013-11-24,35.5,33.7,30.9,32.0,30.5,29.0,94,88,80,30.01,29.93,8,1,11,0.01
2013-11-25,35.2,32.6,30.1,30.0,28.4,26.0,94,84,73,29.93,29.70,6,1,14,0.00
2013-11-26,34.1,30.6,27.1,32.0,28.9,25.0,95,93,90,29.86,29.77,3,0,5,0.05
2013-11-27,31.6,28.2,20.8,30.0,26.3,16.0,96,92,81,29.87,29.67,6,1,16,0.01
2013-11-28,20.8,12.7,5.5,16.0,6.4,-2.0,88,76,65,29.98,29.67,6,2,11,0.00
2013-11-29,12.6,7.6,3.4,4.0,-1.2,-4.0,74,68,62,30.15,29.99,10,3,15,0.00
2013-11-30,13.7,7.5,1.5,2.0,-1.5,-5.0,78,67,50,30.41,30.15,12,3,33,0.00
2013-12-1,27.7,20.6,9.0,9.0,2.9,-2.0,63,47,35,30.55,30.41,10,2,17,0.00
2013-12-2,40.9,32.1,22.3,13.0,6.5,2.0,48,34,25,30.70,30.53,4,1,8,0.00
2013-12-3,32.4,28.2,24.3,27.0,21.3,11.0,88,77,49,30.70,30.52,8,2,11,0.00
2013-12-4,35.0,33.5,29.8,34.0,29.5,25.0,95,85,78,30.52,30.36,7,2,10,0.02
2013-12-5,40.1,37.7,33.8,38.0,36.3,32.0,97,94,90,30.47,30.34,6,1,11,0.09
2013-12-6,46.4,41.6,37.6,41.0,38.1,36.0,93,87,78,30.50,30.46,5,1,10,0.00
2013-12-7,40.0,35.4,30.6,39.0,34.5,30.0,97,96,93,30.47,30.42,4,1,7,0.00
2013-12-8,33.3,29.6,26.3,32.0,28.8,25.0,98,96,93,30.46,30.36,6,2,15,0.00
2013-12-9,37.2,35.0,29.2,37.0,33.8,28.0,100,95,92,30.37,30.18,3,1,4,0.01
2013-12-10,36.3,32.6,26.5,34.0,30.9,25.0,97,93,89,30.17,29.69,14,2,15,0.00
2013-12-11,26.1,18.6,11.6,24.0,13.5,6.0,93,80,67,29.68,29.43,11,3,19,0.00
2013-12-12,15.2,11.1,6.2,8.0,5.4,1.0,85,78,70,29.46,29.39,9,2,12,0.00
2013-12-13,17.3,14.0,7.4,14.0,10.9,4.0,91,87,79,29.45,28.89,11,2,16,0.15
2013-12-14,18.4,13.9,10.0,17.0,12.0,8.0,94,92,89,29.14,28.90,11,2,17,0.09
2013-12-15,16.5,11.8,6.8,14.0,9.8,4.0,92,91,89,29.91,29.15,8,1,16,0.07
2013-12-16,9.9,5.5,2.5,8.0,2.9,0.0,97,88,85,30.12,29.91,3,1,7,0.00
2013-12-17,10.9,5.5,0.5,7.0,1.6,-4.0,87,84,78,30.37,30.13,4,1,5,0.00
2013-12-18,28.0,19.4,6.2,27.0,15.5,2.0,96,85,69,30.38,29.57,14,4,23,0.26
2013-12-19,28.8,24.9,19.3,28.0,23.4,18.0,97,94,91,29.68,29.53,11,2,19,0.03
2013-12-20,35.3,32.0,27.1,33.0,29.8,25.0,94,91,86,29.66,29.57,4,2,10,0.01
2013-12-21,38.0,35.2,31.3,35.0,32.7,29.0,95,90,83,29.62,29.42,5,1,8,0.05
2013-12-22,34.4,28.3,20.4,33.0,27.2,17.0,97,95,85,29.71,29.38,7,1,10,0.10
2013-12-23,23.1,18.6,13.5,18.0,11.3,4.0,91,73,61,30.06,29.72,13,3,15,0.00
2013-12-24,18.0,13.8,10.0,12.0,6.2,2.0,82,72,65,30.06,29.71,13,3,17,0.00
2013-12-25,23.2,16.8,9.5,13.0,3.9,0.0,77,57,46,29.73,29.68,4,1,6,0.00
2013-12-26,24.8,21.3,17.0,17.0,13.5,9.0,79,72,63,29.73,29.64,3,1,5,0.00
2013-12-27,33.8,27.1,18.2,31.0,20.4,11.0,91,76,64,29.84,29.73,10,2,13,0.00
2013-12-28,32.5,28.6,24.1,30.0,26.4,22.0,94,91,84,29.90,29.79,3,1,7,0.00
2013-12-29,36.3,32.1,27.5,31.0,28.5,26.0,95,87,76,29.90,29.58,8,2,12,0.00
2013-12-30,35.8,32.7,29.2,31.0,28.2,25.0,92,83,76,29.58,29.41,8,2,11,0.00
2013-12-31,39.1,34.7,28.6,33.0,31.0,27.0,95,86,72,29.56,29.10,23,8,35,0.06
2014-1-1,36.7,33.4,29.8,34.0,31.9,29.0,97,94,86,29.50,29.01,26,6,32,0.16
2014-1-2,32.1,29.3,28.0,29.0,27.5,24.0,97,93,83,30.05,29.51,6,1,10,0.00